createdAt,value
2018-08-04T00:01:32.986Z,96.80
2018-08-04T00:04:02.073Z,99.90
2018-08-04T00:06:33.885Z,99.90
2018-08-04T00:09:03.159Z,99.90
2018-08-04T00:11:32.446Z,99.90
2018-08-04T00:14:01.695Z,99.90
2018-08-04T00:16:30.995Z,99.90
2018-08-04T00:19:00.303Z,99.90
2018-08-04T00:21:29.574Z,99.90
2018-08-04T00:23:59.194Z,99.90
2018-08-04T00:26:34.794Z,99.90
2018-08-04T00:29:04.216Z,99.90
2018-08-04T00:31:34.098Z,99.90
2018-08-04T00:34:03.444Z,99.90
2018-08-04T00:36:32.737Z,99.90
2018-08-04T00:39:02.014Z,99.90
2018-08-04T00:41:31.294Z,99.90
2018-08-04T00:44:00.580Z,99.90
2018-08-04T00:46:29.930Z,99.90
2018-08-04T00:48:59.198Z,99.90
2018-08-04T00:51:28.363Z,99.90
2018-08-04T00:53:57.646Z,99.90
2018-08-04T00:56:26.966Z,99.90
2018-08-04T00:58:56.278Z,99.90
2018-08-04T01:01:25.668Z,99.90
2018-08-04T01:03:55.076Z,99.90
2018-08-04T01:09:17.244Z,99.90
2018-08-04T01:11:46.511Z,99.90
2018-08-04T01:14:15.772Z,99.90
2018-08-04T01:16:44.934Z,99.90
2018-08-04T01:19:14.304Z,99.90
2018-08-04T01:21:43.554Z,99.90
2018-08-04T01:24:12.822Z,99.90
2018-08-04T01:26:42.107Z,99.90
2018-08-04T01:29:11.431Z,99.90
2018-08-04T01:31:40.728Z,99.90
2018-08-04T01:34:09.884Z,99.90
2018-08-04T01:36:39.200Z,99.90
2018-08-04T01:39:09.890Z,99.90
2018-08-04T01:44:07.980Z,99.90
2018-08-04T01:46:37.278Z,99.90
2018-08-04T01:49:06.626Z,99.90
2018-08-04T01:51:35.876Z,99.90
2018-08-04T01:54:05.215Z,99.90
2018-08-04T01:56:34.540Z,99.90
2018-08-04T01:59:03.881Z,99.90
2018-08-04T02:01:33.208Z,99.90
2018-08-04T02:04:02.448Z,99.90
2018-08-04T02:06:31.713Z,99.90
2018-08-04T02:09:00.974Z,99.90
2018-08-04T02:11:30.144Z,99.90
2018-08-04T02:14:11.217Z,99.90
2018-08-04T02:16:40.462Z,99.90
2018-08-04T02:19:09.687Z,99.90
2018-08-04T02:21:39.016Z,99.90
2018-08-04T02:24:08.366Z,99.90
2018-08-04T02:26:37.663Z,99.90
2018-08-04T02:29:06.975Z,99.90
2018-08-04T02:31:42.692Z,99.90
2018-08-04T02:34:11.887Z,99.90
2018-08-04T02:36:41.218Z,99.90
2018-08-04T02:41:39.592Z,99.90
2018-08-04T02:44:08.887Z,99.90
2018-08-04T02:46:38.231Z,99.90
2018-08-04T02:49:07.630Z,99.90
2018-08-04T02:51:36.860Z,99.90
2018-08-04T02:54:06.146Z,99.90
2018-08-04T02:56:35.364Z,99.90
2018-08-04T02:59:04.631Z,99.90
2018-08-04T03:01:34.043Z,99.90
2018-08-04T03:04:03.437Z,99.90
2018-08-04T03:06:32.711Z,99.90
2018-08-04T03:09:02.013Z,99.90
2018-08-04T03:11:31.328Z,99.90
2018-08-04T03:14:00.619Z,99.90
2018-08-04T03:16:29.900Z,99.90
2018-08-04T03:21:30.912Z,99.90
2018-08-04T03:24:00.275Z,99.90
2018-08-04T03:26:29.572Z,99.90
2018-08-04T03:28:58.848Z,99.90
2018-08-04T03:31:28.156Z,99.90
2018-08-04T03:33:57.374Z,99.90
2018-08-04T03:36:26.613Z,99.90
2018-08-04T03:38:55.883Z,99.90
2018-08-04T03:41:25.180Z,99.90
2018-08-04T03:43:54.435Z,99.90
2018-08-04T03:46:23.778Z,99.90
2018-08-04T03:48:53.067Z,99.90
2018-08-04T03:53:51.091Z,99.90
2018-08-04T03:56:20.302Z,99.90
2018-08-04T03:58:49.558Z,99.90
2018-08-04T04:01:18.924Z,99.90
2018-08-04T04:03:48.173Z,99.90
2018-08-04T04:06:17.500Z,99.90
2018-08-04T04:08:46.795Z,99.90
2018-08-04T04:11:16.167Z,99.90
2018-08-04T04:13:45.459Z,99.90
2018-08-04T04:16:14.711Z,99.90
2018-08-04T04:18:43.971Z,99.90
2018-08-04T04:21:13.238Z,99.90
2018-08-04T04:23:42.386Z,99.90
2018-08-04T04:26:11.441Z,99.90
2018-08-04T04:28:40.454Z,99.90
2018-08-04T04:31:09.569Z,99.90
2018-08-04T04:33:38.585Z,99.90
2018-08-04T04:36:07.619Z,99.90
2018-08-04T04:38:36.660Z,99.90
2018-08-04T04:41:05.722Z,99.90
2018-08-04T04:43:34.778Z,99.90
2018-08-04T04:46:03.813Z,99.90
2018-08-04T04:48:32.924Z,99.90
2018-08-04T04:51:02.019Z,99.90
2018-08-04T04:53:31.071Z,99.90
2018-08-04T04:56:00.188Z,99.90
2018-08-04T04:58:29.246Z,99.90
2018-08-04T05:00:58.294Z,99.90
2018-08-04T05:03:27.326Z,99.90
2018-08-04T05:05:56.405Z,99.90
2018-08-04T05:08:45.354Z,99.90
2018-08-04T05:11:14.386Z,99.90
2018-08-04T05:13:43.442Z,99.90
2018-08-04T05:16:12.482Z,99.90
2018-08-04T05:18:41.574Z,99.90
2018-08-04T05:21:10.609Z,99.90
2018-08-04T05:23:39.686Z,99.90
2018-08-04T05:26:08.712Z,99.90
2018-08-04T05:28:37.752Z,99.90
2018-08-04T05:31:07.135Z,99.90
2018-08-04T05:33:36.198Z,99.90
2018-08-04T05:36:05.314Z,99.90
2018-08-04T05:38:34.338Z,99.90
2018-08-04T05:41:03.434Z,99.90
2018-08-04T05:43:32.524Z,99.90
2018-08-04T05:46:01.543Z,99.90
2018-08-04T05:48:30.587Z,99.90
2018-08-04T05:50:59.597Z,99.90
2018-08-04T05:53:28.698Z,99.90
2018-08-04T05:55:57.993Z,99.90
2018-08-04T05:58:27.065Z,99.90
2018-08-04T06:00:56.109Z,99.90
2018-08-04T06:03:25.235Z,99.90
2018-08-04T06:05:54.407Z,99.90
2018-08-04T06:08:23.428Z,99.90
2018-08-04T06:10:52.462Z,99.90
2018-08-04T06:13:21.501Z,99.90
2018-08-04T06:15:50.508Z,99.90
2018-08-04T06:18:19.561Z,99.90
2018-08-04T06:20:48.582Z,99.90
2018-08-04T06:23:17.618Z,99.90
2018-08-04T06:25:46.660Z,99.90
2018-08-04T06:28:15.837Z,99.90
2018-08-04T06:30:44.894Z,99.90
2018-08-04T06:33:13.928Z,99.90
2018-08-04T06:35:42.985Z,99.90
2018-08-04T06:38:12.035Z,99.90
2018-08-04T06:40:41.099Z,99.90
2018-08-04T06:43:10.158Z,99.90
2018-08-04T06:45:39.164Z,99.90
2018-08-04T06:48:08.225Z,99.90
2018-08-04T06:50:37.269Z,99.90
2018-08-04T06:53:06.303Z,99.90
2018-08-04T06:55:35.378Z,99.90
2018-08-04T06:58:04.394Z,99.90
2018-08-04T07:00:33.452Z,99.90
2018-08-04T07:03:02.557Z,99.90
2018-08-04T07:05:31.552Z,99.90
2018-08-04T07:08:00.607Z,99.90
2018-08-04T07:10:29.654Z,99.90
2018-08-04T07:12:58.709Z,99.90
2018-08-04T07:15:27.758Z,99.90
2018-08-04T07:17:56.761Z,99.90
2018-08-04T07:20:25.881Z,99.90
2018-08-04T07:22:54.943Z,99.90
2018-08-04T07:25:24.019Z,99.90
2018-08-04T07:27:53.057Z,99.90
2018-08-04T07:30:22.094Z,99.90
2018-08-04T07:32:51.129Z,99.90
2018-08-04T07:35:20.129Z,99.90
2018-08-04T07:37:49.174Z,99.90
2018-08-04T07:40:18.279Z,99.90
2018-08-04T07:42:47.313Z,99.90
2018-08-04T07:45:16.360Z,99.90
2018-08-04T07:47:45.618Z,99.90
2018-08-04T07:52:43.384Z,99.90
2018-08-04T07:55:12.403Z,99.90
2018-08-04T07:57:41.510Z,99.90
2018-08-04T08:00:10.937Z,99.90
2018-08-04T08:02:40.002Z,99.90
2018-08-04T08:05:09.090Z,99.90
2018-08-04T08:07:38.137Z,99.90
2018-08-04T08:10:07.484Z,99.90
2018-08-04T08:12:36.489Z,99.90
2018-08-04T08:15:07.322Z,99.90
2018-08-04T08:17:36.518Z,99.90
2018-08-04T08:20:06.310Z,99.90
2018-08-04T08:22:39.201Z,99.90
2018-08-04T08:25:08.920Z,99.90
2018-08-04T08:27:38.501Z,99.90
2018-08-04T08:30:13.375Z,99.90
2018-08-04T08:32:42.544Z,99.90
2018-08-04T08:35:12.090Z,99.90
2018-08-04T08:37:41.697Z,99.90
2018-08-04T08:40:10.901Z,99.90
2018-08-04T08:42:39.998Z,99.90
2018-08-04T08:45:10.297Z,99.90
2018-08-04T08:47:39.446Z,99.90
2018-08-04T08:50:10.971Z,99.90
2018-08-04T08:52:40.372Z,99.90
2018-08-04T08:55:10.050Z,99.90
2018-08-04T08:57:39.182Z,99.90
2018-08-04T09:00:13.100Z,99.90
2018-08-04T09:02:42.245Z,99.90
2018-08-04T09:05:11.567Z,99.90
2018-08-04T09:07:40.782Z,99.30
2018-08-04T09:10:12.628Z,98.60
2018-08-04T09:12:42.451Z,95.30
2018-08-04T09:15:11.521Z,95.80
2018-08-04T09:17:40.659Z,99.90
2018-08-04T09:20:10.830Z,95.70
2018-08-04T09:22:40.034Z,93.40
2018-08-04T09:25:09.582Z,93.30
2018-08-04T09:27:39.366Z,91.50
2018-08-04T09:30:10.994Z,91.60
2018-08-04T09:32:40.624Z,90.60
2018-08-04T09:35:09.690Z,90.50
2018-08-04T09:37:38.777Z,90.50
2018-08-04T09:40:10.212Z,90.30
2018-08-04T09:42:39.342Z,91.90
2018-08-04T09:45:09.507Z,90.60
2018-08-04T09:47:39.189Z,86.30
2018-08-04T09:50:10.141Z,86.30
2018-08-04T09:52:39.505Z,87.50
2018-08-04T09:55:09.661Z,83.80
2018-08-04T09:57:39.282Z,84.50
2018-08-04T10:00:15.322Z,82.60
2018-08-04T10:02:44.409Z,82.00
2018-08-04T10:06:37.782Z,84.30
2018-08-04T10:09:09.645Z,84.00
2018-08-04T10:11:38.793Z,81.00
2018-08-04T10:14:07.885Z,81.00
2018-08-04T10:16:36.967Z,79.60
2018-08-04T10:19:06.053Z,79.80
2018-08-04T10:21:35.135Z,73.50
2018-08-04T10:24:04.297Z,73.60
2018-08-04T10:26:34.853Z,75.40
2018-08-04T10:29:03.948Z,75.60
2018-08-04T10:31:33.009Z,69.10
2018-08-04T10:34:02.084Z,70.40
2018-08-04T10:38:59.768Z,64.90
2018-08-04T10:41:28.870Z,63.10
2018-08-04T10:43:58.004Z,64.10
2018-08-04T10:46:27.081Z,65.80
2018-08-04T10:48:56.153Z,66.90
2018-08-04T10:51:25.217Z,62.00
2018-08-04T10:53:54.299Z,62.00
2018-08-04T10:56:23.365Z,61.10
2018-08-04T10:58:52.430Z,63.30
2018-08-04T11:01:21.496Z,64.50
2018-08-04T11:03:50.589Z,59.20
2018-08-04T11:06:19.679Z,60.70
2018-08-04T11:08:48.773Z,59.30
2018-08-04T11:11:17.927Z,57.30
2018-08-04T11:13:47.018Z,56.10
2018-08-04T11:16:16.078Z,57.40
2018-08-04T11:18:45.164Z,57.50
2018-08-04T11:26:11.450Z,57.30
2018-08-04T11:28:40.509Z,58.00
2018-08-04T11:31:09.606Z,59.20
2018-08-04T11:33:38.653Z,59.30
2018-08-04T11:36:07.811Z,57.60
2018-08-04T11:38:36.874Z,58.30
2018-08-04T11:41:06.276Z,58.70
2018-08-04T11:46:03.948Z,57.50
2018-08-04T11:48:33.059Z,59.40
2018-08-04T11:51:02.149Z,56.80
2018-08-04T11:53:31.263Z,58.40
2018-08-04T11:56:00.559Z,56.70
2018-08-04T11:58:29.820Z,55.70
2018-08-04T12:00:59.255Z,56.20
2018-08-04T12:03:28.556Z,55.30
2018-08-04T12:05:57.884Z,56.10
2018-08-04T12:08:28.131Z,58.40
2018-08-04T12:10:57.499Z,55.80
2018-08-04T12:15:55.683Z,55.70
2018-08-04T12:18:24.955Z,54.40
2018-08-04T12:20:54.245Z,54.90
2018-08-04T12:23:23.649Z,56.90
2018-08-04T12:25:52.975Z,54.20
2018-08-04T12:28:22.417Z,55.90
2018-08-04T12:30:51.663Z,55.50
2018-08-04T12:33:21.002Z,55.10
2018-08-04T12:35:50.296Z,53.80
2018-08-04T12:38:19.533Z,54.10
2018-08-04T12:40:48.891Z,53.80
2018-08-04T12:43:18.278Z,52.00
2018-08-04T12:45:47.598Z,52.90
2018-08-04T12:48:16.995Z,52.70
2018-08-04T12:50:46.308Z,52.00
2018-08-04T12:53:15.632Z,53.30
2018-08-04T13:00:42.542Z,52.70
2018-08-04T13:05:40.591Z,53.10
2018-08-04T13:08:09.844Z,54.30
2018-08-04T13:10:39.218Z,53.60
2018-08-04T13:13:08.487Z,54.80
2018-08-04T13:15:37.843Z,55.20
2018-08-04T13:18:07.144Z,55.40
2018-08-04T13:23:05.299Z,54.60
2018-08-04T13:25:34.613Z,55.70
2018-08-04T13:28:25.879Z,55.50
2018-08-04T13:30:54.965Z,55.60
2018-08-04T13:33:24.055Z,55.10
2018-08-04T13:35:53.154Z,54.80
2018-08-04T13:38:22.246Z,54.30
2018-08-04T13:40:51.303Z,55.10
2018-08-04T13:43:20.394Z,53.90
2018-08-04T13:45:49.470Z,54.30
2018-08-04T13:48:18.856Z,55.50
2018-08-04T13:50:47.970Z,56.40
2018-08-04T13:55:46.382Z,53.20
2018-08-04T13:58:15.482Z,53.50
2018-08-04T14:32:57.114Z,50.20
2018-08-04T14:35:26.197Z,51.00
2018-08-04T14:37:55.265Z,51.10
2018-08-04T14:40:24.377Z,51.20
2018-08-04T14:42:53.444Z,51.40
2018-08-04T14:45:22.541Z,51.30
2018-08-04T14:47:51.614Z,51.70
2018-08-04T14:50:20.654Z,52.50
2018-08-04T14:52:49.705Z,52.00
2018-08-04T14:55:18.742Z,53.10
2018-08-04T14:57:47.825Z,53.20
2018-08-04T15:00:16.912Z,53.10
2018-08-04T15:02:45.946Z,53.80
2018-08-04T15:05:15.030Z,53.70
2018-08-04T15:07:44.095Z,54.10
2018-08-04T15:10:13.238Z,54.20
2018-08-04T15:12:42.388Z,55.50
2018-08-04T15:15:11.511Z,55.40
2018-08-04T15:17:40.621Z,55.80
2018-08-04T15:20:09.740Z,55.40
2018-08-04T15:22:38.802Z,55.70
2018-08-04T15:25:08.350Z,55.60
2018-08-04T15:27:37.441Z,55.10
2018-08-04T15:30:06.752Z,54.80
2018-08-04T15:32:35.777Z,55.00
2018-08-04T15:35:04.923Z,54.20
2018-08-04T15:37:35.721Z,54.80
2018-08-04T15:40:04.900Z,54.90
2018-08-04T15:42:33.977Z,54.10
2018-08-04T15:45:03.041Z,54.20
2018-08-04T15:47:32.122Z,54.90
2018-08-04T15:50:01.169Z,55.00
2018-08-04T15:52:30.266Z,55.60
2018-08-04T15:54:59.290Z,55.60
2018-08-04T15:57:28.372Z,54.70
2018-08-04T15:59:57.418Z,54.70
2018-08-04T16:02:26.470Z,55.40
2018-08-04T16:04:55.592Z,55.00
2018-08-04T16:07:24.797Z,54.30
2018-08-04T16:09:53.934Z,54.80
2018-08-04T16:12:23.081Z,54.90
2018-08-04T16:14:52.157Z,55.40
2018-08-04T16:19:50.150Z,53.20
2018-08-04T16:22:19.239Z,53.90
2018-08-04T16:27:16.974Z,53.50
2018-08-04T16:29:46.094Z,53.00
2018-08-04T16:32:15.322Z,53.40
2018-08-04T16:34:44.486Z,54.40
2018-08-04T16:37:13.559Z,52.90
2018-08-04T16:39:42.603Z,54.40
2018-08-04T16:44:40.287Z,53.50
2018-08-04T16:47:09.358Z,53.70
2018-08-04T16:49:38.430Z,52.90
2018-08-04T16:52:07.606Z,54.00
2018-08-04T16:54:36.795Z,54.30
2018-08-04T16:57:06.134Z,53.60
2018-08-04T16:59:35.558Z,53.30
2018-08-04T17:02:04.799Z,52.00
2018-08-04T17:04:34.274Z,52.10
2018-08-04T17:07:03.615Z,53.80
2018-08-04T17:12:01.679Z,52.90
2018-08-04T17:14:30.881Z,53.70
2018-08-04T17:19:28.902Z,52.20
2018-08-04T17:21:58.152Z,52.80
2018-08-04T17:24:27.519Z,52.80
2018-08-04T17:29:25.551Z,55.70
2018-08-04T17:31:54.923Z,55.40
2018-08-04T17:34:24.216Z,54.50
2018-08-04T17:36:53.603Z,54.90
2018-08-04T17:39:23.023Z,56.60
2018-08-04T17:41:52.276Z,57.40
2018-08-04T17:44:21.593Z,56.60
2018-08-04T17:46:50.859Z,56.50
2018-08-04T17:49:20.164Z,57.70
2018-08-04T17:51:49.405Z,57.30
2018-08-04T17:54:18.732Z,59.30
2018-08-04T17:56:48.054Z,59.30
2018-08-04T17:59:17.351Z,57.30
2018-08-04T18:01:46.743Z,60.70
2018-08-04T18:04:16.069Z,61.60
2018-08-04T18:06:45.335Z,62.60
2018-08-04T18:09:14.790Z,62.90
2018-08-04T18:11:44.115Z,62.60
2018-08-04T18:14:13.383Z,63.50
2018-08-04T18:16:42.683Z,61.10
2018-08-04T18:19:12.028Z,63.40
2018-08-04T18:21:41.329Z,63.20
2018-08-04T18:24:10.867Z,64.70
2018-08-04T18:26:40.197Z,65.40
2018-08-04T18:29:09.431Z,65.90
2018-08-04T18:31:38.747Z,64.80
2018-08-04T18:34:08.063Z,65.00
2018-08-04T18:36:37.319Z,67.40
2018-08-04T18:39:08.056Z,67.50
2018-08-04T18:41:37.299Z,66.40
2018-08-04T18:44:06.498Z,68.90
2018-08-04T18:46:35.729Z,64.70
2018-08-04T18:49:05.048Z,70.30
2018-08-04T18:51:34.394Z,71.40
2018-08-04T18:54:03.727Z,71.40
2018-08-04T18:56:33.026Z,72.40
2018-08-04T18:59:02.495Z,71.20
2018-08-04T19:01:31.799Z,71.70
2018-08-04T19:04:01.131Z,71.70
2018-08-04T19:06:30.379Z,72.30
2018-08-04T19:08:59.667Z,68.00
2018-08-04T19:11:28.971Z,72.30
2018-08-04T19:13:58.267Z,67.70
2018-08-04T19:16:27.534Z,69.50
2018-08-04T19:18:56.837Z,69.40
2018-08-04T19:21:26.095Z,72.30
2018-08-04T19:23:57.534Z,74.30
2018-08-04T19:26:37.880Z,74.90
2018-08-04T19:29:07.269Z,73.30
2018-08-04T19:31:36.625Z,74.00
2018-08-04T19:34:05.892Z,71.30
2018-08-04T19:36:35.384Z,72.70
2018-08-04T19:39:06.481Z,74.80
2018-08-04T19:41:35.804Z,77.20
2018-08-04T19:44:05.307Z,77.50
2018-08-04T19:46:34.653Z,76.60
2018-08-04T19:49:04.039Z,77.00
2018-08-04T19:51:33.359Z,79.70
2018-08-04T19:54:02.668Z,83.60
2018-08-04T20:05:19.003Z,88.50
2018-08-04T20:07:48.358Z,84.60
2018-08-04T20:10:17.734Z,88.60
2018-08-04T20:12:46.942Z,89.80
2018-08-04T20:18:09.395Z,81.70
2018-08-04T20:20:38.798Z,87.90
2018-08-04T20:23:08.094Z,89.40
2018-08-04T20:25:37.419Z,90.10
2018-08-04T20:28:06.672Z,90.10
2018-08-04T20:30:35.951Z,88.50
2018-08-04T20:33:05.229Z,90.30
2018-08-04T20:35:34.643Z,90.50
2018-08-04T20:38:04.066Z,90.70
2018-08-04T20:43:48.318Z,90.90
2018-08-04T20:46:17.735Z,89.90
2018-08-04T20:48:46.967Z,86.50
2018-08-04T20:51:16.487Z,84.90
2018-08-04T20:56:15.719Z,90.60
2018-08-04T20:58:44.879Z,89.80
2018-08-04T21:01:54.187Z,90.50
2018-08-04T21:04:23.543Z,86.10
2018-08-04T21:06:52.774Z,89.20
2018-08-04T21:09:22.139Z,88.30
2018-08-04T21:11:53.398Z,82.90
2018-08-04T21:14:23.940Z,86.00
2018-08-04T21:16:54.121Z,86.10
2018-08-04T21:19:24.370Z,84.10
2018-08-04T21:21:53.789Z,82.50
2018-08-04T21:24:24.182Z,83.90
2018-08-04T21:26:54.292Z,83.00
2018-08-04T21:29:23.969Z,81.80
2018-08-04T21:31:53.299Z,81.20
2018-08-04T21:34:22.636Z,80.30
2018-08-04T21:36:52.024Z,80.00
2018-08-04T21:39:21.429Z,81.30
2018-08-04T21:41:50.645Z,80.40
2018-08-04T21:44:19.899Z,78.40
2018-08-04T21:46:50.262Z,79.50
2018-08-04T21:49:20.073Z,78.60
2018-08-04T21:51:50.541Z,79.50
2018-08-04T21:54:20.355Z,78.40
2018-08-04T21:56:49.489Z,79.30
2018-08-04T21:59:18.752Z,79.00
2018-08-04T22:01:53.224Z,78.50
2018-08-04T22:04:32.336Z,78.70
2018-08-04T22:08:11.364Z,78.80
2018-08-04T22:10:40.686Z,79.90
2018-08-04T22:13:10.019Z,79.20
2018-08-04T22:15:39.360Z,77.80
2018-08-04T22:18:08.689Z,81.50
2018-08-04T22:20:37.903Z,79.10
2018-08-04T22:23:07.242Z,81.40
2018-08-04T22:25:36.474Z,81.60
2018-08-04T22:28:06.018Z,82.20
2018-08-04T22:30:35.290Z,81.40
2018-08-04T22:33:04.567Z,81.70
2018-08-04T22:35:33.835Z,79.30
2018-08-04T22:38:03.086Z,81.60
2018-08-04T22:40:32.354Z,81.90
2018-08-04T22:43:01.612Z,82.10
2018-08-04T22:45:54.823Z,80.20
2018-08-04T22:48:24.134Z,81.40
2018-08-04T22:50:53.353Z,82.30
2018-08-04T22:53:22.581Z,83.30
2018-08-04T22:55:51.827Z,81.90
2018-08-04T22:58:21.222Z,82.70
2018-08-04T23:00:50.466Z,84.80
2018-08-04T23:03:19.687Z,85.10
2018-08-04T23:05:48.891Z,84.50
2018-08-04T23:08:18.157Z,84.40
2018-08-04T23:10:47.442Z,84.70
2018-08-04T23:13:17.145Z,83.80
2018-08-04T23:15:46.479Z,84.20
2018-08-04T23:18:15.791Z,83.60
2018-08-04T23:20:45.067Z,83.60
2018-08-04T23:23:14.851Z,84.70
2018-08-04T23:25:44.155Z,85.80
2018-08-04T23:28:13.449Z,85.10
2018-08-04T23:30:42.587Z,86.00
2018-08-04T23:33:11.633Z,81.90
2018-08-04T23:35:40.713Z,85.00
2018-08-04T23:38:09.786Z,86.50
2018-08-04T23:40:38.829Z,85.50
2018-08-04T23:43:07.950Z,87.30
2018-08-04T23:45:36.991Z,84.00
2018-08-04T23:48:06.037Z,85.50
2018-08-04T23:50:35.062Z,86.90
2018-08-04T23:53:04.196Z,90.00
2018-08-04T23:55:33.243Z,90.80
2018-08-04T23:58:02.271Z,87.10
